Time;durP1;ratioP1;P1;durP2;ratioP2;P2;SDS_P1;SDS_P2;PMS_P1;PMS_P2;Temp;Humidity;BMP_temperature;BMP_pressure;BME280_temperature;BME280_humidity;BME280_pressure;Samples;Min_cycle;Max_cycle;Signal;HPM_P1;HPM_P2
2023/04/19 00:00:46;;;;;;;16.30;9.77;;;8.20;99.90;;;;;;2075656;28;20208;-85
2023/04/19 00:02:08;;;;;;;17.73;10.07;;;8.10;99.90;;;;;;2076784;28;20254;-85
2023/04/19 00:03:30;;;;;;;15.13;9.65;;;8.20;99.90;;;;;;2081628;28;20593;-84
2023/04/19 00:04:51;;;;;;;17.27;8.98;;;8.10;99.90;;;;;;2071426;28;20198;-85
2023/04/19 00:06:14;;;;;;;14.82;9.75;;;8.10;99.90;;;;;;2077602;28;20261;-84
2023/04/19 00:07:35;;;;;;;15.52;9.35;;;8.00;99.90;;;;;;2083682;28;20204;-84
2023/04/19 00:08:56;;;;;;;13.63;8.32;;;8.10;99.90;;;;;;2090652;28;20207;-83
2023/04/19 00:10:17;;;;;;;13.98;9.43;;;8.10;99.90;;;;;;2077461;28;20213;-85
2023/04/19 00:11:40;;;;;;;14.80;9.77;;;8.10;99.90;;;;;;2077230;28;20215;-84
2023/04/19 00:13:01;;;;;;;17.63;9.88;;;8.10;99.90;;;;;;2076503;28;20265;-84
2023/04/19 00:14:22;;;;;;;16.27;9.75;;;8.20;99.90;;;;;;2079933;28;20184;-84
2023/04/19 00:15:43;;;;;;;17.73;10.23;;;8.20;99.90;;;;;;2076124;28;20197;-84
2023/04/19 00:17:04;;;;;;;15.13;8.93;;;8.10;99.90;;;;;;2077920;28;20234;-84
2023/04/19 00:18:25;;;;;;;15.15;8.45;;;8.20;99.90;;;;;;2068907;28;20250;-84
2023/04/19 00:19:46;;;;;;;14.75;9.00;;;8.10;99.90;;;;;;2073599;28;20194;-84
2023/04/19 00:21:08;;;;;;;14.27;8.88;;;8.10;99.90;;;;;;2074451;28;20198;-84
2023/04/19 00:22:29;;;;;;;15.75;9.93;;;8.00;99.90;;;;;;2067497;28;20283;-84
2023/04/19 00:23:52;;;;;;;17.02;10.80;;;7.90;99.90;;;;;;2078630;28;20209;-85
2023/04/19 00:25:13;;;;;;;19.95;11.90;;;7.90;99.90;;;;;;2083226;28;20277;-85
2023/04/19 00:26:34;;;;;;;17.08;11.18;;;7.60;99.90;;;;;;2070230;28;20206;-84
2023/04/19 00:27:55;;;;;;;17.27;10.82;;;7.50;99.90;;;;;;2073723;28;20217;-84
2023/04/19 00:29:16;;;;;;;21.73;11.55;;;7.60;99.90;;;;;;2068481;28;20194;-84
2023/04/19 00:30:37;;;;;;;19.77;11.60;;;7.40;99.90;;;;;;2069576;28;20282;-84
2023/04/19 00:31:58;;;;;;;20.20;11.50;;;7.30;99.90;;;;;;2068432;28;20685;-84
2023/04/19 00:33:19;;;;;;;19.40;11.32;;;7.30;99.90;;;;;;2071650;28;20257;-85
2023/04/19 00:34:41;;;;;;;18.92;11.55;;;7.20;99.90;;;;;;2075131;28;20222;-84
2023/04/19 00:36:02;;;;;;;19.33;11.57;;;7.30;99.90;;;;;;2073820;28;20200;-85
2023/04/19 00:37:23;;;;;;;22.23;11.32;;;7.30;99.90;;;;;;2081360;28;20188;-84
2023/04/19 00:38:44;;;;;;;19.90;11.35;;;7.10;99.90;;;;;;2088688;28;20202;-84
2023/04/19 00:40:06;;;;;;;24.50;11.73;;;7.10;99.90;;;;;;2085001;28;20197;-84
2023/04/19 00:41:27;;;;;;;21.65;13.05;;;7.00;99.90;;;;;;2088727;28;20201;-83
2023/04/19 00:42:48;;;;;;;27.08;14.10;;;7.00;99.90;;;;;;2088793;28;20259;-84
2023/04/19 00:44:09;;;;;;;21.58;12.85;;;7.00;99.90;;;;;;2080667;28;20236;-84
2023/04/19 00:45:32;;;;;;;25.63;12.90;;;6.90;99.90;;;;;;2072184;28;20193;-85
2023/04/19 00:46:55;;;;;;;21.63;11.55;;;6.90;99.90;;;;;;2079651;28;20224;-84
2023/04/19 00:48:16;;;;;;;29.77;14.77;;;6.80;99.90;;;;;;2080088;28;20813;-85
2023/04/19 00:49:37;;;;;;;24.40;13.57;;;6.90;99.90;;;;;;2076182;28;20221;-83
2023/04/19 00:50:58;;;;;;;26.33;13.38;;;6.80;99.90;;;;;;2065433;28;20654;-84
2023/04/19 00:52:21;;;;;;;21.58;12.63;;;6.80;99.90;;;;;;2068113;28;20185;-85
2023/04/19 00:53:43;;;;;;;25.48;13.48;;;6.90;99.90;;;;;;2085346;28;20279;-84
2023/04/19 00:55:04;;;;;;;26.85;14.55;;;7.00;99.90;;;;;;2083560;28;20261;-84
2023/04/19 00:56:26;;;;;;;25.63;14.38;;;7.00;99.90;;;;;;2077982;28;20185;-84
2023/04/19 00:57:47;;;;;;;23.48;13.68;;;7.10;99.90;;;;;;2076619;28;20212;-83
2023/04/19 00:59:08;;;;;;;21.80;12.70;;;7.00;99.90;;;;;;2074199;28;20197;-84
2023/04/19 01:00:29;;;;;;;26.08;13.43;;;7.00;99.90;;;;;;2082459;28;20185;-84
2023/04/19 01:01:50;;;;;;;25.08;12.93;;;7.10;99.90;;;;;;2078184;28;20197;-84
2023/04/19 01:03:12;;;;;;;25.33;15.80;;;7.20;99.90;;;;;;2085012;28;20661;-83
2023/04/19 01:04:33;;;;;;;22.45;12.30;;;7.30;99.90;;;;;;2079769;28;20200;-84
2023/04/19 01:05:55;;;;;;;23.27;13.82;;;7.30;99.90;;;;;;2070517;28;20183;-84
2023/04/19 01:07:18;;;;;;;29.23;14.27;;;7.30;99.90;;;;;;2074821;28;20194;-84
2023/04/19 01:08:39;;;;;;;20.42;12.30;;;7.30;99.90;;;;;;2068496;28;20186;-84
2023/04/19 01:10:00;;;;;;;20.27;12.63;;;7.30;99.90;;;;;;2064096;28;20266;-84
2023/04/19 01:11:23;;;;;;;20.88;12.02;;;7.40;99.90;;;;;;2068084;28;20197;-85
2023/04/19 01:12:44;;;;;;;22.60;12.93;;;7.50;99.90;;;;;;2077031;28;20189;-84
2023/04/19 01:14:05;;;;;;;21.95;13.80;;;7.50;99.90;;;;;;2071707;28;20228;-84
2023/04/19 01:15:26;;;;;;;21.00;12.23;;;7.50;99.90;;;;;;2078564;28;20190;-84
2023/04/19 01:16:47;;;;;;;23.58;12.35;;;7.50;99.90;;;;;;2092573;28;20203;-85
2023/04/19 01:18:08;;;;;;;20.40;11.98;;;7.50;99.90;;;;;;2074157;28;20201;-85
2023/04/19 01:19:30;;;;;;;24.08;13.27;;;7.70;99.90;;;;;;2073611;28;20779;-85
2023/04/19 01:20:51;;;;;;;20.63;11.93;;;7.60;99.90;;;;;;2081605;28;20207;-85
2023/04/19 01:22:21;;;;;;;22.20;12.65;;;7.60;99.90;;;;;;2073509;28;20206;-85
2023/04/19 01:23:42;;;;;;;22.00;12.23;;;7.60;99.90;;;;;;2074852;28;20277;-85
2023/04/19 01:25:04;;;;;;;20.40;11.82;;;7.40;99.90;;;;;;2070590;28;20186;-85
2023/04/19 01:26:25;;;;;;;22.00;11.98;;;7.50;99.90;;;;;;2080370;28;20203;-85
2023/04/19 01:27:46;;;;;;;22.75;14.05;;;7.50;99.90;;;;;;2070781;28;20236;-85
2023/04/19 01:29:07;;;;;;;22.65;13.02;;;7.60;99.90;;;;;;2076927;28;20193;-85
2023/04/19 01:30:28;;;;;;;22.13;13.23;;;7.50;99.90;;;;;;2075603;28;20190;-85
2023/04/19 01:31:52;;;;;;;22.73;13.05;;;7.40;99.90;;;;;;2070903;28;20232;-85
2023/04/19 01:33:13;;;;;;;20.38;12.57;;;7.50;99.90;;;;;;2080383;28;20186;-85
2023/04/19 01:34:34;;;;;;;19.17;11.75;;;7.50;99.90;;;;;;2069374;28;20628;-85
2023/04/19 01:35:55;;;;;;;20.00;11.75;;;7.40;99.90;;;;;;2073446;28;20229;-85
2023/04/19 01:37:16;;;;;;;20.13;12.07;;;7.50;99.90;;;;;;2072508;28;20193;-85
2023/04/19 01:38:37;;;;;;;20.23;12.27;;;7.50;99.90;;;;;;2079750;28;20282;-85
2023/04/19 01:39:58;;;;;;;23.48;12.52;;;7.50;99.90;;;;;;2073084;28;20190;-85
2023/04/19 01:41:21;;;;;;;20.33;12.88;;;7.50;99.90;;;;;;2070249;28;20276;-85
2023/04/19 01:42:42;;;;;;;22.27;13.38;;;7.60;99.90;;;;;;2080320;28;20279;-85
2023/04/19 01:44:03;;;;;;;20.48;12.13;;;7.70;99.90;;;;;;2067945;28;20214;-85
2023/04/19 01:45:24;;;;;;;19.02;11.82;;;7.70;99.90;;;;;;2074945;28;20186;-85
2023/04/19 01:46:45;;;;;;;20.85;12.07;;;7.70;99.90;;;;;;2084742;28;20200;-85
2023/04/19 01:48:07;;;;;;;22.73;13.10;;;7.70;99.90;;;;;;2075387;28;20315;-85
2023/04/19 01:49:28;;;;;;;21.25;12.65;;;7.70;99.90;;;;;;2076313;28;20225;-85
2023/04/19 01:50:49;;;;;;;20.27;12.45;;;7.80;99.90;;;;;;2076888;28;20224;-85
2023/04/19 01:52:10;;;;;;;21.35;12.27;;;7.80;99.90;;;;;;2075709;28;20193;-85
2023/04/19 01:53:31;;;;;;;21.02;13.05;;;7.80;99.90;;;;;;2076607;28;20190;-85
2023/04/19 01:54:52;;;;;;;21.10;12.18;;;7.70;99.90;;;;;;2074456;28;20779;-85
2023/04/19 01:56:13;;;;;;;23.75;13.27;;;7.60;99.90;;;;;;2084645;28;20200;-85
2023/04/19 01:57:34;;;;;;;20.92;12.07;;;7.50;99.90;;;;;;2077648;28;20213;-85
2023/04/19 01:58:55;;;;;;;20.77;12.43;;;7.50;99.90;;;;;;2079334;28;20209;-85
2023/04/19 02:00:16;;;;;;;32.78;13.70;;;7.60;99.90;;;;;;2076230;28;20189;-86
2023/04/19 02:01:37;;;;;;;23.30;12.43;;;7.60;99.90;;;;;;2072876;28;20194;-85
2023/04/19 02:02:58;;;;;;;22.15;13.07;;;7.60;99.90;;;;;;2083844;28;20181;-85
2023/04/19 02:04:23;;;;;;;23.98;12.75;;;7.60;99.90;;;;;;2071460;28;20190;-85
2023/04/19 02:05:44;;;;;;;21.15;12.25;;;7.60;99.90;;;;;;2068011;28;20781;-85
2023/04/19 02:07:05;;;;;;;24.38;12.90;;;7.50;99.90;;;;;;2076361;28;20251;-85
2023/04/19 02:08:26;;;;;;;23.45;12.82;;;7.60;99.90;;;;;;2074663;28;20237;-86
2023/04/19 02:09:47;;;;;;;19.45;11.30;;;7.60;99.90;;;;;;2077407;28;20197;-84
2023/04/19 02:11:10;;;;;;;19.63;11.77;;;7.60;99.90;;;;;;2075254;28;20191;-84
2023/04/19 02:12:33;;;;;;;20.55;12.18;;;7.60;99.90;;;;;;2070444;28;20189;-84
2023/04/19 02:13:54;;;;;;;19.83;11.75;;;7.60;99.90;;;;;;2080164;28;20205;-84
2023/04/19 02:15:15;;;;;;;23.02;13.02;;;7.70;99.90;;;;;;2086712;28;20181;-85
2023/04/19 02:16:36;;;;;;;20.33;12.13;;;7.70;99.90;;;;;;2071973;28;20198;-84
2023/04/19 02:17:59;;;;;;;21.70;12.43;;;7.50;99.90;;;;;;2071615;28;20276;-84
2023/04/19 02:19:20;;;;;;;21.70;12.15;;;7.50;99.90;;;;;;2075799;28;20197;-84
2023/04/19 02:20:41;;;;;;;17.73;11.15;;;7.50;99.90;;;;;;2079614;28;20267;-84
2023/04/19 02:22:02;;;;;;;22.13;12.90;;;7.50;99.90;;;;;;2072875;28;20316;-85
2023/04/19 02:23:23;;;;;;;19.55;12.23;;;7.40;99.90;;;;;;2077742;28;20674;-84
2023/04/19 02:24:44;;;;;;;20.80;12.13;;;7.20;99.90;;;;;;2076387;28;20253;-86
2023/04/19 02:26:05;;;;;;;20.60;12.43;;;7.20;99.90;;;;;;2072375;28;20208;-85
2023/04/19 02:27:27;;;;;;;20.75;12.75;;;7.30;99.90;;;;;;2078610;28;20216;-84
2023/04/19 02:28:51;;;;;;;20.80;12.57;;;7.30;99.90;;;;;;2082589;28;20224;-84
2023/04/19 02:30:12;;;;;;;17.75;12.05;;;7.40;99.90;;;;;;2076986;28;20256;-84
2023/04/19 02:31:33;;;;;;;22.95;12.27;;;7.50;99.90;;;;;;2078124;28;20207;-84
2023/04/19 02:32:54;;;;;;;17.90;11.27;;;7.50;99.90;;;;;;2070468;28;20190;-84
2023/04/19 02:34:15;;;;;;;21.40;11.93;;;7.60;99.90;;;;;;2074021;28;20268;-84
2023/04/19 02:35:37;;;;;;;21.38;12.68;;;7.60;99.90;;;;;;2073711;28;20252;-83
2023/04/19 02:36:58;;;;;;;20.48;12.77;;;7.70;99.90;;;;;;2073700;28;20251;-85
2023/04/19 02:38:19;;;;;;;21.67;12.52;;;7.60;99.90;;;;;;2066163;28;20190;-84
2023/04/19 02:39:41;;;;;;;20.40;11.65;;;7.70;99.90;;;;;;2071123;28;20197;-85
2023/04/19 02:41:03;;;;;;;20.77;12.27;;;7.60;99.90;;;;;;2068313;28;20301;-85
2023/04/19 02:42:24;;;;;;;21.90;12.95;;;7.60;99.90;;;;;;2077686;28;20191;-84
2023/04/19 02:43:45;;;;;;;16.83;10.90;;;7.70;99.90;;;;;;2074179;28;20205;-84
2023/04/19 02:45:07;;;;;;;18.20;11.00;;;7.60;99.90;;;;;;2075837;28;20204;-85
2023/04/19 02:46:28;;;;;;;22.58;12.35;;;7.70;99.90;;;;;;2073551;28;20194;-84
2023/04/19 02:47:49;;;;;;;21.23;12.90;;;7.70;99.90;;;;;;2074659;28;20237;-84
2023/04/19 02:49:10;;;;;;;18.85;11.57;;;7.60;99.90;;;;;;2076317;28;20189;-83
2023/04/19 02:50:32;;;;;;;18.67;11.43;;;7.50;99.90;;;;;;2079302;28;20189;-84
2023/04/19 02:51:53;;;;;;;18.70;10.65;;;7.50;99.90;;;;;;2078777;28;20329;-86
2023/04/19 02:53:14;;;;;;;20.85;11.80;;;7.50;99.90;;;;;;2073138;28;20190;-84
2023/04/19 02:54:35;;;;;;;17.38;10.68;;;7.50;99.90;;;;;;2075815;28;20689;-85
2023/04/19 02:55:56;;;;;;;20.35;11.63;;;7.60;99.90;;;;;;2076027;28;20178;-85
2023/04/19 02:57:17;;;;;;;20.80;12.13;;;7.50;99.90;;;;;;2081865;28;20192;-84
2023/04/19 02:58:38;;;;;;;19.05;11.32;;;7.50;99.90;;;;;;2079985;28;20205;-85
2023/04/19 02:59:59;;;;;;;22.42;11.90;;;7.50;99.90;;;;;;2080775;28;20224;-84
2023/04/19 03:01:20;;;;;;;23.50;13.63;;;7.50;99.90;;;;;;2068144;28;20222;-84
2023/04/19 03:02:43;;;;;;;18.42;10.93;;;7.50;99.90;;;;;;2076019;28;20187;-84
2023/04/19 03:04:04;;;;;;;19.38;11.93;;;7.50;99.90;;;;;;2074469;28;20197;-84
2023/04/19 03:05:25;;;;;;;20.25;11.38;;;7.60;99.90;;;;;;2069375;28;20241;-84
2023/04/19 03:06:46;;;;;;;22.33;12.35;;;7.60;99.90;;;;;;2076139;28;20201;-85
2023/04/19 03:08:07;;;;;;;16.45;11.02;;;7.60;99.90;;;;;;2072645;28;20269;-84
2023/04/19 03:09:28;;;;;;;19.92;11.80;;;7.50;99.90;;;;;;2075640;28;20189;-84
2023/04/19 03:10:49;;;;;;;19.85;11.48;;;7.40;99.90;;;;;;2074691;28;20454;-84
2023/04/19 03:12:10;;;;;;;22.95;12.25;;;7.50;99.90;;;;;;2071741;28;20186;-84
2023/04/19 03:13:31;;;;;;;21.58;12.48;;;7.50;99.90;;;;;;2080093;28;20198;-84
2023/04/19 03:14:52;;;;;;;18.77;11.20;;;7.50;99.90;;;;;;2069769;28;20189;-84
2023/04/19 03:16:13;;;;;;;21.95;12.15;;;7.50;99.90;;;;;;2069144;28;20193;-83
2023/04/19 03:17:36;;;;;;;20.30;12.45;;;7.50;99.90;;;;;;2073041;28;20217;-85
2023/04/19 03:18:57;;;;;;;21.00;11.95;;;7.30;99.90;;;;;;2079594;28;20197;-84
2023/04/19 03:20:19;;;;;;;21.90;13.05;;;7.40;99.90;;;;;;2081153;28;20193;-84
2023/04/19 03:21:40;;;;;;;22.10;12.30;;;7.30;99.90;;;;;;2072372;28;20746;-83
2023/04/19 03:23:01;;;;;;;21.92;12.05;;;7.40;99.90;;;;;;2068443;28;20519;-84
2023/04/19 03:24:29;;;;;;;19.35;11.20;;;7.30;99.90;;;;;;2074320;28;20265;-83
2023/04/19 03:25:50;;;;;;;22.15;12.63;;;7.30;99.90;;;;;;2070763;28;20232;-84
2023/04/19 03:27:12;;;;;;;21.27;12.55;;;7.30;99.90;;;;;;2072299;28;20197;-84
2023/04/19 03:28:33;;;;;;;20.90;12.60;;;7.30;99.90;;;;;;2069689;28;20213;-84
2023/04/19 03:29:55;;;;;;;22.42;11.75;;;7.30;99.90;;;;;;2068186;28;20201;-84
2023/04/19 03:31:17;;;;;;;22.10;12.73;;;7.40;99.90;;;;;;2076960;28;20194;-84
2023/04/19 03:32:38;;;;;;;23.65;12.30;;;7.40;99.90;;;;;;2080613;28;20241;-84
2023/04/19 03:33:59;;;;;;;21.63;13.07;;;7.50;99.90;;;;;;2074172;28;20201;-85
2023/04/19 03:35:21;;;;;;;20.25;11.80;;;7.40;99.90;;;;;;2073315;28;20190;-85
2023/04/19 03:36:42;;;;;;;22.35;12.57;;;7.60;99.90;;;;;;2072467;28;20193;-84
2023/04/19 03:38:03;;;;;;;19.70;12.02;;;7.60;99.90;;;;;;2065670;28;20213;-85
2023/04/19 03:39:24;;;;;;;22.13;12.75;;;7.60;99.90;;;;;;2080149;28;20212;-85
2023/04/19 03:40:46;;;;;;;20.33;11.88;;;7.60;99.90;;;;;;2077010;28;20202;-85
2023/04/19 03:42:07;;;;;;;22.10;12.73;;;7.70;99.90;;;;;;2073070;28;20279;-85
2023/04/19 03:43:28;;;;;;;21.52;12.25;;;7.70;99.90;;;;;;2068863;28;20206;-84
2023/04/19 03:44:49;;;;;;;20.80;11.95;;;7.60;99.90;;;;;;2081789;28;20185;-85
2023/04/19 03:46:10;;;;;;;23.08;12.82;;;7.60;99.90;;;;;;2078400;28;20185;-84
2023/04/19 03:47:31;;;;;;;21.67;12.75;;;7.60;99.90;;;;;;2074729;28;20584;-85
2023/04/19 03:48:52;;;;;;;23.27;12.02;;;7.60;99.90;;;;;;2079768;28;20212;-85
2023/04/19 03:50:13;;;;;;;19.98;11.43;;;7.60;99.90;;;;;;2074362;28;20209;-85
2023/04/19 03:51:34;;;;;;;25.08;13.13;;;7.60;99.90;;;;;;2071860;28;20658;-85
2023/04/19 03:52:55;;;;;;;22.20;12.40;;;7.50;99.90;;;;;;2076555;28;20200;-85
2023/04/19 03:54:17;;;;;;;24.40;13.35;;;7.50;99.90;;;;;;2087556;28;20189;-85
2023/04/19 03:55:38;;;;;;;23.38;12.63;;;7.50;99.90;;;;;;2075675;28;20641;-86
2023/04/19 03:56:59;;;;;;;19.27;11.68;;;7.60;99.90;;;;;;2076110;28;20221;-85
2023/04/19 03:58:21;;;;;;;21.42;12.38;;;7.60;99.90;;;;;;2075785;28;20209;-85
2023/04/19 03:59:42;;;;;;;20.70;13.20;;;7.60;99.90;;;;;;2080776;28;20256;-85
2023/04/19 04:01:04;;;;;;;23.98;13.25;;;7.60;99.90;;;;;;2081397;28;20281;-85
2023/04/19 04:02:25;;;;;;;21.38;13.38;;;7.60;99.90;;;;;;2076697;28;20884;-84
2023/04/19 04:03:46;;;;;;;20.52;12.38;;;7.60;99.90;;;;;;2073524;28;20219;-84
2023/04/19 04:05:07;;;;;;;21.55;12.48;;;7.70;99.90;;;;;;2070990;28;20677;-85
2023/04/19 04:06:29;;;;;;;26.02;14.15;;;7.70;99.90;;;;;;2070952;28;20194;-85
2023/04/19 04:07:50;;;;;;;23.30;12.65;;;7.70;99.90;;;;;;2074057;28;20216;-85
2023/04/19 04:09:11;;;;;;;19.92;12.65;;;7.60;99.90;;;;;;2066116;28;20257;-84
2023/04/19 04:10:32;;;;;;;23.35;13.60;;;7.60;99.90;;;;;;2070956;28;20194;-85
2023/04/19 04:11:53;;;;;;;21.10;13.70;;;7.70;99.90;;;;;;2073989;28;20247;-85
2023/04/19 04:13:14;;;;;;;25.52;13.60;;;7.60;99.90;;;;;;2076882;28;20181;-83
2023/04/19 04:14:35;;;;;;;23.63;13.90;;;7.70;99.90;;;;;;2085765;28;20199;-84
2023/04/19 04:15:56;;;;;;;21.55;13.60;;;7.60;99.90;;;;;;2072425;28;20219;-84
2023/04/19 04:17:17;;;;;;;20.08;12.32;;;7.60;99.90;;;;;;2068413;28;20205;-84
2023/04/19 04:18:38;;;;;;;21.63;12.73;;;7.60;99.90;;;;;;2072098;28;20228;-85
2023/04/19 04:20:00;;;;;;;20.55;12.63;;;7.70;99.90;;;;;;2072701;28;20201;-84
2023/04/19 04:21:23;;;;;;;20.95;12.38;;;7.70;99.90;;;;;;2068157;28;20220;-84
2023/04/19 04:22:47;;;;;;;22.48;11.85;;;7.60;99.90;;;;;;2070194;28;20209;-84
2023/04/19 04:24:08;;;;;;;20.85;12.13;;;7.60;99.90;;;;;;2065424;28;20229;-84
2023/04/19 04:25:31;;;;;;;25.20;15.00;;;7.60;99.90;;;;;;2073792;28;20763;-85
2023/04/19 04:26:53;;;;;;;20.83;12.63;;;7.40;99.90;;;;;;2079561;28;20206;-85
2023/04/19 04:28:14;;;;;;;21.52;12.48;;;7.40;99.90;;;;;;2077714;28;20588;-85
2023/04/19 04:29:37;;;;;;;21.35;12.00;;;7.40;99.90;;;;;;2078200;28;20208;-85
2023/04/19 04:30:59;;;;;;;26.05;15.80;;;7.30;99.90;;;;;;2077910;28;20193;-85
2023/04/19 04:32:21;;;;;;;23.95;12.88;;;7.50;99.90;;;;;;2075083;28;20566;-85
2023/04/19 04:33:44;;;;;;;21.38;13.00;;;7.40;99.90;;;;;;2077417;28;20553;-84
2023/04/19 04:35:08;;;;;;;21.17;12.88;;;7.40;99.90;;;;;;2071932;28;20268;-85
2023/04/19 04:36:30;;;;;;;19.52;12.25;;;7.40;99.90;;;;;;2075065;28;20202;-83
2023/04/19 04:37:52;;;;;;;23.38;12.88;;;7.40;99.90;;;;;;2068869;28;20243;-85
2023/04/19 04:39:13;;;;;;;18.77;11.18;;;7.40;99.90;;;;;;2080271;28;20360;-84
2023/04/19 04:40:35;;;;;;;25.80;12.77;;;7.40;99.90;;;;;;2076105;28;20286;-85
2023/04/19 04:41:58;;;;;;;23.17;12.63;;;7.50;99.90;;;;;;2077061;28;20196;-83
2023/04/19 04:43:24;;;;;;;21.60;12.32;;;7.50;99.90;;;;;;2080209;28;20197;-84
2023/04/19 04:44:46;;;;;;;22.00;12.35;;;7.50;99.90;;;;;;2079709;28;20203;-84
2023/04/19 04:46:07;;;;;;;19.52;11.65;;;7.60;99.90;;;;;;2072851;28;20240;-83
2023/04/19 04:47:32;;;;;;;21.63;12.30;;;7.70;99.90;;;;;;2072620;28;20212;-84
2023/04/19 04:48:53;;;;;;;23.00;12.73;;;7.60;99.90;;;;;;2072520;28;20204;-85
2023/04/19 04:50:15;;;;;;;22.85;12.65;;;7.70;99.90;;;;;;2079228;28;20201;-84
2023/04/19 04:51:36;;;;;;;22.02;13.35;;;7.60;99.90;;;;;;2070880;28;20186;-84
2023/04/19 04:52:57;;;;;;;23.95;13.55;;;7.60;99.90;;;;;;2071188;28;20196;-84
2023/04/19 04:54:18;;;;;;;23.45;13.43;;;7.70;99.90;;;;;;2072478;28;20177;-83
2023/04/19 04:55:39;;;;;;;21.17;12.55;;;7.80;99.90;;;;;;2069175;28;20269;-83
2023/04/19 04:57:01;;;;;;;23.52;13.43;;;7.80;99.90;;;;;;2069276;28;20215;-83
2023/04/19 04:58:22;;;;;;;20.45;11.80;;;7.80;99.90;;;;;;2079102;28;20243;-84
2023/04/19 04:59:44;;;;;;;23.48;12.57;;;7.70;99.90;;;;;;2070810;28;20212;-84
2023/04/19 05:01:04;;;;;;;23.30;13.40;;;7.70;99.90;;;;;;2074110;28;20211;-85
2023/04/19 05:02:25;;;;;;;20.63;11.68;;;7.70;99.90;;;;;;2070388;28;20244;-85
2023/04/19 05:03:46;;;;;;;21.88;12.27;;;7.70;99.90;;;;;;2063517;28;20222;-84
2023/04/19 05:05:10;;;;;;;21.35;12.90;;;7.80;99.90;;;;;;2073703;28;20406;-85
2023/04/19 05:06:31;;;;;;;20.75;11.88;;;7.80;99.90;;;;;;2067131;28;20209;-84
2023/04/19 05:07:52;;;;;;;21.75;13.30;;;7.90;99.90;;;;;;2072865;28;20265;-85
2023/04/19 05:09:13;;;;;;;21.52;12.07;;;7.80;99.90;;;;;;2073288;28;20267;-84
2023/04/19 05:10:34;;;;;;;22.70;13.45;;;7.70;99.90;;;;;;2073987;28;20201;-84
2023/04/19 05:11:55;;;;;;;22.90;13.73;;;7.70;99.90;;;;;;2076391;28;20197;-84
2023/04/19 05:13:16;;;;;;;22.83;12.93;;;7.60;99.90;;;;;;2077673;28;20207;-84
2023/04/19 05:14:37;;;;;;;20.52;12.38;;;7.60;99.90;;;;;;2066828;28;20195;-84
2023/04/19 05:15:58;;;;;;;21.45;12.85;;;7.50;99.90;;;;;;2073471;28;20188;-85
2023/04/19 05:17:19;;;;;;;24.15;12.50;;;7.60;99.90;;;;;;2067201;28;20274;-85
2023/04/19 05:18:40;;;;;;;22.95;12.98;;;7.70;99.90;;;;;;2075507;28;20207;-84
2023/04/19 05:20:01;;;;;;;21.75;13.82;;;7.60;99.90;;;;;;2067945;28;20284;-85
2023/04/19 05:21:22;;;;;;;23.05;13.00;;;7.60;99.90;;;;;;2072756;28;20193;-85
2023/04/19 05:22:43;;;;;;;20.95;12.75;;;7.70;99.90;;;;;;2075929;28;20192;-85
2023/04/19 05:24:04;;;;;;;24.48;12.93;;;7.70;99.90;;;;;;2076292;28;20204;-85
2023/04/19 05:25:26;;;;;;;26.60;13.90;;;7.70;99.90;;;;;;2073042;28;20280;-84
2023/04/19 05:26:47;;;;;;;21.23;12.40;;;7.70;99.90;;;;;;2078437;28;20199;-85
2023/04/19 05:28:08;;;;;;;21.30;12.43;;;7.70;99.90;;;;;;2076701;28;20283;-85
2023/04/19 05:29:30;;;;;;;21.58;12.52;;;7.90;99.90;;;;;;2077108;28;20250;-84
2023/04/19 05:30:51;;;;;;;21.42;12.75;;;8.00;99.90;;;;;;2082327;28;20555;-84
2023/04/19 05:32:12;;;;;;;19.50;12.05;;;7.90;99.90;;;;;;2067234;28;20210;-84
2023/04/19 05:33:33;;;;;;;22.23;12.38;;;8.00;99.90;;;;;;2069277;28;20184;-84
2023/04/19 05:34:54;;;;;;;21.73;12.38;;;8.00;99.90;;;;;;2076303;28;20273;-85
2023/04/19 05:36:15;;;;;;;20.90;12.57;;;7.90;99.90;;;;;;2069149;28;20228;-85
2023/04/19 05:37:37;;;;;;;21.15;12.43;;;8.00;99.90;;;;;;2063863;28;20205;-84
2023/04/19 05:38:59;;;;;;;18.65;10.93;;;8.00;99.90;;;;;;2072042;28;20201;-84
2023/04/19 05:40:21;;;;;;;21.67;12.15;;;8.00;99.90;;;;;;2071526;28;20809;-83
2023/04/19 05:41:42;;;;;;;23.67;13.10;;;8.00;99.90;;;;;;2077346;28;20197;-84
2023/04/19 05:43:03;;;;;;;27.08;14.20;;;8.00;99.90;;;;;;2080480;28;20193;-84
2023/04/19 05:44:24;;;;;;;22.23;12.10;;;8.00;99.90;;;;;;2066816;28;20690;-84
2023/04/19 05:45:45;;;;;;;21.95;12.55;;;7.80;99.90;;;;;;2067856;28;20437;-85
2023/04/19 05:47:07;;;;;;;21.30;12.63;;;7.60;99.90;;;;;;2073695;28;20552;-84
2023/04/19 05:48:29;;;;;;;21.10;12.38;;;7.60;99.90;;;;;;2077772;28;20216;-84
2023/04/19 05:49:50;;;;;;;20.80;12.15;;;7.80;99.90;;;;;;2070575;28;20196;-84
2023/04/19 05:51:13;;;;;;;22.05;13.15;;;7.50;99.90;;;;;;2072274;28;20195;-85
2023/04/19 05:52:34;;;;;;;24.00;12.77;;;7.60;99.90;;;;;;2070322;28;20186;-84
2023/04/19 05:53:55;;;;;;;21.00;12.32;;;7.70;99.90;;;;;;2070228;28;20203;-84
2023/04/19 05:55:16;;;;;;;23.75;12.93;;;7.70;99.90;;;;;;2077913;28;20268;-84
2023/04/19 05:56:38;;;;;;;22.92;12.30;;;7.80;99.90;;;;;;2077521;28;20788;-84
2023/04/19 05:57:59;;;;;;;27.48;15.45;;;7.80;99.90;;;;;;2068376;28;20205;-84
2023/04/19 05:59:20;;;;;;;21.55;13.05;;;7.80;99.90;;;;;;2076223;28;20280;-84
2023/04/19 06:00:41;;;;;;;20.92;12.68;;;7.70;99.90;;;;;;2076681;28;20181;-83
2023/04/19 06:02:03;;;;;;;22.20;11.57;;;7.80;99.90;;;;;;2072151;28;20933;-83
2023/04/19 06:03:24;;;;;;;19.15;11.75;;;7.90;99.90;;;;;;2067859;28;20220;-84
2023/04/19 06:04:45;;;;;;;21.98;11.75;;;7.90;99.90;;;;;;2076577;28;20200;-84
2023/04/19 06:06:06;;;;;;;17.88;11.35;;;8.00;99.90;;;;;;2069097;28;20190;-83
2023/04/19 06:07:27;;;;;;;20.08;11.57;;;8.00;99.90;;;;;;2063101;28;20217;-84
2023/04/19 06:08:49;;;;;;;17.80;10.82;;;8.00;99.90;;;;;;2068234;28;20231;-84
2023/04/19 06:10:10;;;;;;;20.30;11.88;;;8.00;99.90;;;;;;2071892;28;20224;-84
2023/04/19 06:11:31;;;;;;;21.80;12.25;;;8.00;99.90;;;;;;2076964;28;20212;-85
2023/04/19 06:12:52;;;;;;;18.67;10.93;;;8.00;99.90;;;;;;2070180;28;20202;-84
2023/04/19 06:14:13;;;;;;;19.52;11.50;;;7.90;99.90;;;;;;2071311;28;20233;-83
2023/04/19 06:15:34;;;;;;;19.75;11.65;;;8.00;99.90;;;;;;2072693;28;20229;-84
2023/04/19 06:16:55;;;;;;;20.15;11.75;;;8.00;99.90;;;;;;2079059;28;20201;-84
2023/04/19 06:18:16;;;;;;;20.77;12.23;;;8.10;99.90;;;;;;2071795;28;20193;-84
2023/04/19 06:19:38;;;;;;;17.63;11.15;;;8.10;99.90;;;;;;2077281;28;20219;-84
2023/04/19 06:20:59;;;;;;;17.83;11.60;;;8.10;99.90;;;;;;2072675;28;20192;-84
2023/04/19 06:22:20;;;;;;;22.33;12.43;;;8.20;99.90;;;;;;2067188;28;20200;-84
2023/04/19 06:23:41;;;;;;;17.48;11.27;;;8.10;99.90;;;;;;2070628;28;20693;-84
2023/04/19 06:25:02;;;;;;;16.30;10.32;;;8.10;99.90;;;;;;2069025;28;20201;-84
2023/04/19 06:26:23;;;;;;;18.13;10.52;;;8.10;99.90;;;;;;2069898;28;20631;-84
2023/04/19 06:27:44;;;;;;;16.35;10.25;;;8.10;99.90;;;;;;2073981;28;20242;-84
2023/04/19 06:29:05;;;;;;;17.50;10.18;;;8.20;99.90;;;;;;2070424;28;20236;-85
2023/04/19 06:30:26;;;;;;;19.60;11.13;;;8.20;99.90;;;;;;2072185;28;20205;-84
2023/04/19 06:31:47;;;;;;;16.65;9.77;;;8.20;99.90;;;;;;2069455;28;20193;-84
2023/04/19 06:33:08;;;;;;;15.48;9.52;;;8.30;99.90;;;;;;2067066;28;20186;-84
2023/04/19 06:34:30;;;;;;;14.73;9.85;;;8.40;99.90;;;;;;2066234;28;20196;-84
2023/04/19 06:35:51;;;;;;;19.83;10.48;;;8.40;99.90;;;;;;2067148;28;20277;-84
2023/04/19 06:37:12;;;;;;;16.42;10.45;;;8.40;99.90;;;;;;2068283;28;20217;-84
2023/04/19 06:38:33;;;;;;;16.85;10.82;;;8.20;99.90;;;;;;2067069;28;20325;-84
2023/04/19 06:39:54;;;;;;;18.83;10.43;;;8.20;99.90;;;;;;2074039;28;20224;-84
2023/04/19 06:41:15;;;;;;;19.00;10.63;;;8.30;99.90;;;;;;2071316;28;20201;-84
2023/04/19 06:42:37;;;;;;;17.67;10.85;;;8.20;99.90;;;;;;2081070;28;20192;-85
2023/04/19 06:43:58;;;;;;;16.60;10.40;;;8.20;99.90;;;;;;2068286;28;20189;-84
2023/04/19 06:45:19;;;;;;;15.80;9.40;;;8.10;99.90;;;;;;2072753;28;20700;-83
2023/04/19 06:46:40;;;;;;;16.90;11.43;;;8.20;99.90;;;;;;2075703;28;20211;-83
2023/04/19 06:48:01;;;;;;;14.73;9.63;;;8.20;99.90;;;;;;2080823;28;20247;-83
2023/04/19 06:49:22;;;;;;;15.75;9.55;;;8.30;99.90;;;;;;2075442;28;20216;-84
2023/04/19 06:50:43;;;;;;;16.90;10.93;;;8.40;99.90;;;;;;2069491;28;20190;-84
2023/04/19 06:52:04;;;;;;;16.58;9.70;;;8.50;99.90;;;;;;2070082;28;20213;-84
2023/04/19 06:53:26;;;;;;;17.48;10.32;;;8.60;99.90;;;;;;2074243;28;20284;-83
2023/04/19 06:54:50;;;;;;;12.07;8.55;;;8.80;99.90;;;;;;2069431;28;20201;-84
2023/04/19 06:56:12;;;;;;;13.55;9.43;;;8.90;99.90;;;;;;2071124;28;20265;-84
2023/04/19 06:57:33;;;;;;;14.02;9.48;;;9.10;99.90;;;;;;2072947;28;20204;-84
2023/04/19 06:58:54;;;;;;;13.57;9.10;;;9.20;99.90;;;;;;2069951;28;20258;-84